sensor_id;sensor_type;location;lat;lon;timestamp;temperature;humidity
2867;DHT22;1441;48.886;8.728;2023-04-03T00:01:00;4.60;87.00
2867;DHT22;1441;48.886;8.728;2023-04-03T00:03:26;4.60;86.90
2867;DHT22;1441;48.886;8.728;2023-04-03T00:05:51;4.60;86.80
2867;DHT22;1441;48.886;8.728;2023-04-03T00:08:17;4.40;87.00
2867;DHT22;1441;48.886;8.728;2023-04-03T00:10:42;4.50;87.60
2867;DHT22;1441;48.886;8.728;2023-04-03T00:13:09;4.40;87.10
2867;DHT22;1441;48.886;8.728;2023-04-03T00:15:35;4.30;87.60
2867;DHT22;1441;48.886;8.728;2023-04-03T00:18:02;4.30;87.80
2867;DHT22;1441;48.886;8.728;2023-04-03T00:20:28;4.20;88.30
2867;DHT22;1441;48.886;8.728;2023-04-03T00:22:53;4.30;88.60
2867;DHT22;1441;48.886;8.728;2023-04-03T00:25:19;4.30;88.20
2867;DHT22;1441;48.886;8.728;2023-04-03T00:27:45;4.30;88.10
2867;DHT22;1441;48.886;8.728;2023-04-03T00:30:14;4.30;88.20
2867;DHT22;1441;48.886;8.728;2023-04-03T00:32:40;4.30;87.50
2867;DHT22;1441;48.886;8.728;2023-04-03T00:35:06;4.30;88.20
2867;DHT22;1441;48.886;8.728;2023-04-03T00:37:32;4.30;88.30
2867;DHT22;1441;48.886;8.728;2023-04-03T00:39:57;4.40;88.20
2867;DHT22;1441;48.886;8.728;2023-04-03T00:42:24;4.30;87.90
2867;DHT22;1441;48.886;8.728;2023-04-03T00:47:18;4.20;88.50
2867;DHT22;1441;48.886;8.728;2023-04-03T00:49:44;4.10;88.50
2867;DHT22;1441;48.886;8.728;2023-04-03T00:52:16;4.10;88.50
2867;DHT22;1441;48.886;8.728;2023-04-03T00:54:44;4.10;89.10
2867;DHT22;1441;48.886;8.728;2023-04-03T00:57:11;4.10;89.00
2867;DHT22;1441;48.886;8.728;2023-04-03T00:59:43;4.10;88.90
2867;DHT22;1441;48.886;8.728;2023-04-03T01:02:12;4.20;88.80
2867;DHT22;1441;48.886;8.728;2023-04-03T01:04:40;4.20;88.50
2867;DHT22;1441;48.886;8.728;2023-04-03T01:07:18;4.20;88.70
2867;DHT22;1441;48.886;8.728;2023-04-03T01:09:48;4.10;89.00
2867;DHT22;1441;48.886;8.728;2023-04-03T01:12:23;4.10;89.20
2867;DHT22;1441;48.886;8.728;2023-04-03T01:14:52;4.10;89.10
2867;DHT22;1441;48.886;8.728;2023-04-03T01:17:39;4.10;89.40
2867;DHT22;1441;48.886;8.728;2023-04-03T01:23:23;4.10;89.20
2867;DHT22;1441;48.886;8.728;2023-04-03T01:28:11;4.00;89.50
2867;DHT22;1441;48.886;8.728;2023-04-03T01:33:16;3.90;89.80
2867;DHT22;1441;48.886;8.728;2023-04-03T01:35:42;3.90;90.30
2867;DHT22;1441;48.886;8.728;2023-04-03T01:38:07;3.90;90.10
2867;DHT22;1441;48.886;8.728;2023-04-03T01:40:33;3.90;90.40
2867;DHT22;1441;48.886;8.728;2023-04-03T01:42:58;3.90;90.30
2867;DHT22;1441;48.886;8.728;2023-04-03T01:45:24;3.90;90.10
2867;DHT22;1441;48.886;8.728;2023-04-03T01:47:50;3.90;90.20
2867;DHT22;1441;48.886;8.728;2023-04-03T01:50:16;3.80;90.40
2867;DHT22;1441;48.886;8.728;2023-04-03T01:52:41;3.80;90.80
2867;DHT22;1441;48.886;8.728;2023-04-03T01:55:07;3.70;90.80
2867;DHT22;1441;48.886;8.728;2023-04-03T01:57:33;3.70;91.00
2867;DHT22;1441;48.886;8.728;2023-04-03T01:59:59;3.70;90.90
2867;DHT22;1441;48.886;8.728;2023-04-03T02:02:24;3.70;91.00
2867;DHT22;1441;48.886;8.728;2023-04-03T02:04:50;3.70;91.10
2867;DHT22;1441;48.886;8.728;2023-04-03T02:07:15;3.70;91.20
2867;DHT22;1441;48.886;8.728;2023-04-03T02:09:41;3.70;91.40
2867;DHT22;1441;48.886;8.728;2023-04-03T02:12:06;3.70;91.30
2867;DHT22;1441;48.886;8.728;2023-04-03T02:14:32;3.70;91.00
2867;DHT22;1441;48.886;8.728;2023-04-03T02:16:58;3.70;91.00
2867;DHT22;1441;48.886;8.728;2023-04-03T02:19:26;3.70;90.90
2867;DHT22;1441;48.886;8.728;2023-04-03T02:21:51;3.70;90.90
2867;DHT22;1441;48.886;8.728;2023-04-03T02:24:17;3.70;90.70
2867;DHT22;1441;48.886;8.728;2023-04-03T02:26:42;3.70;90.90
2867;DHT22;1441;48.886;8.728;2023-04-03T02:29:08;3.70;91.00
2867;DHT22;1441;48.886;8.728;2023-04-03T02:31:33;3.70;91.10
2867;DHT22;1441;48.886;8.728;2023-04-03T02:33:59;3.60;91.00
2867;DHT22;1441;48.886;8.728;2023-04-03T02:36:24;3.60;91.10
2867;DHT22;1441;48.886;8.728;2023-04-03T02:38:50;3.60;91.20
2867;DHT22;1441;48.886;8.728;2023-04-03T02:41:16;3.60;91.50
2867;DHT22;1441;48.886;8.728;2023-04-03T02:43:41;3.60;91.40
2867;DHT22;1441;48.886;8.728;2023-04-03T02:46:07;3.70;91.40
2867;DHT22;1441;48.886;8.728;2023-04-03T02:48:32;3.70;91.30
2867;DHT22;1441;48.886;8.728;2023-04-03T02:50:58;3.70;91.20
2867;DHT22;1441;48.886;8.728;2023-04-03T02:53:24;3.70;91.10
2867;DHT22;1441;48.886;8.728;2023-04-03T02:55:49;3.70;91.10
2867;DHT22;1441;48.886;8.728;2023-04-03T02:58:15;3.70;91.30
2867;DHT22;1441;48.886;8.728;2023-04-03T03:00:41;3.70;91.40
2867;DHT22;1441;48.886;8.728;2023-04-03T03:03:07;3.70;91.20
2867;DHT22;1441;48.886;8.728;2023-04-03T03:05:33;3.60;91.30
2867;DHT22;1441;48.886;8.728;2023-04-03T03:07:59;3.60;91.20
2867;DHT22;1441;48.886;8.728;2023-04-03T03:10:25;3.60;91.60
2867;DHT22;1441;48.886;8.728;2023-04-03T03:12:50;3.60;91.50
2867;DHT22;1441;48.886;8.728;2023-04-03T03:15:16;3.60;91.70
2867;DHT22;1441;48.886;8.728;2023-04-03T03:17:43;3.60;91.50
2867;DHT22;1441;48.886;8.728;2023-04-03T03:20:08;3.60;91.50
2867;DHT22;1441;48.886;8.728;2023-04-03T03:22:35;3.60;91.40
2867;DHT22;1441;48.886;8.728;2023-04-03T03:25:01;3.60;91.20
2867;DHT22;1441;48.886;8.728;2023-04-03T03:27:27;3.60;91.40
2867;DHT22;1441;48.886;8.728;2023-04-03T03:29:53;3.70;91.30
2867;DHT22;1441;48.886;8.728;2023-04-03T03:32:19;3.70;91.30
2867;DHT22;1441;48.886;8.728;2023-04-03T03:34:44;3.70;90.90
2867;DHT22;1441;48.886;8.728;2023-04-03T03:37:10;3.70;91.10
2867;DHT22;1441;48.886;8.728;2023-04-03T03:39:36;3.60;91.00
2867;DHT22;1441;48.886;8.728;2023-04-03T03:42:02;3.70;91.30
2867;DHT22;1441;48.886;8.728;2023-04-03T03:44:27;3.70;90.80
2867;DHT22;1441;48.886;8.728;2023-04-03T03:46:54;3.70;90.40
2867;DHT22;1441;48.886;8.728;2023-04-03T03:49:20;3.60;90.60
2867;DHT22;1441;48.886;8.728;2023-04-03T03:51:46;3.70;90.60
2867;DHT22;1441;48.886;8.728;2023-04-03T03:54:12;3.70;90.40
2867;DHT22;1441;48.886;8.728;2023-04-03T03:56:38;3.70;90.40
2867;DHT22;1441;48.886;8.728;2023-04-03T03:59:04;3.60;90.50
2867;DHT22;1441;48.886;8.728;2023-04-03T04:01:29;3.70;90.60
2867;DHT22;1441;48.886;8.728;2023-04-03T04:03:56;3.70;90.50
2867;DHT22;1441;48.886;8.728;2023-04-03T04:06:21;3.70;90.50
2867;DHT22;1441;48.886;8.728;2023-04-03T04:08:47;3.80;90.00
2867;DHT22;1441;48.886;8.728;2023-04-03T04:11:13;3.80;89.40
2867;DHT22;1441;48.886;8.728;2023-04-03T04:13:38;3.80;89.40
2867;DHT22;1441;48.886;8.728;2023-04-03T04:16:04;3.90;88.90
2867;DHT22;1441;48.886;8.728;2023-04-03T04:18:30;3.90;89.10
2867;DHT22;1441;48.886;8.728;2023-04-03T04:20:56;3.90;88.90
2867;DHT22;1441;48.886;8.728;2023-04-03T04:23:21;3.80;89.20
2867;DHT22;1441;48.886;8.728;2023-04-03T04:25:47;3.70;89.70
2867;DHT22;1441;48.886;8.728;2023-04-03T04:28:13;3.80;90.00
2867;DHT22;1441;48.886;8.728;2023-04-03T04:30:39;3.90;89.60
2867;DHT22;1441;48.886;8.728;2023-04-03T04:33:05;3.90;88.90
2867;DHT22;1441;48.886;8.728;2023-04-03T04:35:30;4.00;88.60
2867;DHT22;1441;48.886;8.728;2023-04-03T04:37:56;4.00;88.20
2867;DHT22;1441;48.886;8.728;2023-04-03T04:40:22;3.90;88.30
2867;DHT22;1441;48.886;8.728;2023-04-03T04:42:47;4.00;88.70
2867;DHT22;1441;48.886;8.728;2023-04-03T04:45:13;3.90;87.90
2867;DHT22;1441;48.886;8.728;2023-04-03T04:47:38;3.90;88.10
2867;DHT22;1441;48.886;8.728;2023-04-03T04:50:05;4.00;87.60
2867;DHT22;1441;48.886;8.728;2023-04-03T04:52:30;4.00;87.50
2867;DHT22;1441;48.886;8.728;2023-04-03T04:54:56;4.00;88.10
2867;DHT22;1441;48.886;8.728;2023-04-03T04:57:21;4.00;87.30
2867;DHT22;1441;48.886;8.728;2023-04-03T04:59:47;3.90;88.10
2867;DHT22;1441;48.886;8.728;2023-04-03T05:02:12;3.90;87.10
2867;DHT22;1441;48.886;8.728;2023-04-03T05:04:38;4.00;87.60
2867;DHT22;1441;48.886;8.728;2023-04-03T05:07:04;3.90;87.60
2867;DHT22;1441;48.886;8.728;2023-04-03T05:09:29;3.80;87.50
2867;DHT22;1441;48.886;8.728;2023-04-03T05:11:55;3.80;86.80
2867;DHT22;1441;48.886;8.728;2023-04-03T05:14:21;3.80;86.80
2867;DHT22;1441;48.886;8.728;2023-04-03T05:16:47;3.80;86.80
2867;DHT22;1441;48.886;8.728;2023-04-03T05:19:13;3.90;86.30
2867;DHT22;1441;48.886;8.728;2023-04-03T05:21:38;3.90;86.00
2867;DHT22;1441;48.886;8.728;2023-04-03T05:24:05;3.80;85.70
2867;DHT22;1441;48.886;8.728;2023-04-03T05:26:34;3.90;86.00
2867;DHT22;1441;48.886;8.728;2023-04-03T05:29:00;3.90;85.20
2867;DHT22;1441;48.886;8.728;2023-04-03T05:31:26;3.90;84.70
2867;DHT22;1441;48.886;8.728;2023-04-03T05:33:54;3.90;84.80
2867;DHT22;1441;48.886;8.728;2023-04-03T05:36:20;3.90;85.20
2867;DHT22;1441;48.886;8.728;2023-04-03T05:38:46;3.90;86.00
2867;DHT22;1441;48.886;8.728;2023-04-03T05:41:12;3.90;85.80
2867;DHT22;1441;48.886;8.728;2023-04-03T05:43:38;3.90;86.40
2867;DHT22;1441;48.886;8.728;2023-04-03T05:46:08;4.00;85.70
2867;DHT22;1441;48.886;8.728;2023-04-03T05:48:33;3.90;86.70
2867;DHT22;1441;48.886;8.728;2023-04-03T05:50:59;3.90;86.60
2867;DHT22;1441;48.886;8.728;2023-04-03T05:53:27;4.00;86.20
2867;DHT22;1441;48.886;8.728;2023-04-03T05:55:54;4.00;86.10
2867;DHT22;1441;48.886;8.728;2023-04-03T05:58:19;4.00;85.90
2867;DHT22;1441;48.886;8.728;2023-04-03T06:00:45;4.00;86.50
2867;DHT22;1441;48.886;8.728;2023-04-03T06:03:11;4.00;86.60
2867;DHT22;1441;48.886;8.728;2023-04-03T06:05:36;4.10;86.60
2867;DHT22;1441;48.886;8.728;2023-04-03T06:08:02;4.10;86.70
2867;DHT22;1441;48.886;8.728;2023-04-03T06:10:28;4.10;86.80
2867;DHT22;1441;48.886;8.728;2023-04-03T06:12:54;4.20;86.60
2867;DHT22;1441;48.886;8.728;2023-04-03T06:15:20;4.30;85.90
2867;DHT22;1441;48.886;8.728;2023-04-03T06:17:46;4.40;85.70
2867;DHT22;1441;48.886;8.728;2023-04-03T06:20:12;4.60;85.50
2867;DHT22;1441;48.886;8.728;2023-04-03T06:22:38;4.70;84.30
2867;DHT22;1441;48.886;8.728;2023-04-03T06:25:05;4.80;84.20
2867;DHT22;1441;48.886;8.728;2023-04-03T06:27:31;4.90;83.70
2867;DHT22;1441;48.886;8.728;2023-04-03T06:29:57;4.80;85.10
2867;DHT22;1441;48.886;8.728;2023-04-03T06:32:22;5.00;84.00
2867;DHT22;1441;48.886;8.728;2023-04-03T06:34:48;5.20;83.40
2867;DHT22;1441;48.886;8.728;2023-04-03T06:37:19;5.20;82.40
2867;DHT22;1441;48.886;8.728;2023-04-03T06:39:46;5.20;82.40
2867;DHT22;1441;48.886;8.728;2023-04-03T06:42:11;5.10;82.40
2867;DHT22;1441;48.886;8.728;2023-04-03T06:44:37;5.10;83.50
2867;DHT22;1441;48.886;8.728;2023-04-03T06:47:03;5.10;83.50
2867;DHT22;1441;48.886;8.728;2023-04-03T06:49:28;5.10;83.40
2867;DHT22;1441;48.886;8.728;2023-04-03T06:51:54;5.10;83.70
2867;DHT22;1441;48.886;8.728;2023-04-03T06:54:21;5.00;83.90
2867;DHT22;1441;48.886;8.728;2023-04-03T06:56:47;5.00;83.60
2867;DHT22;1441;48.886;8.728;2023-04-03T06:59:13;5.00;84.30
2867;DHT22;1441;48.886;8.728;2023-04-03T07:01:42;4.80;83.50
2867;DHT22;1441;48.886;8.728;2023-04-03T07:04:08;4.70;83.80
2867;DHT22;1441;48.886;8.728;2023-04-03T07:06:34;4.60;84.80
2867;DHT22;1441;48.886;8.728;2023-04-03T07:09:01;4.50;84.70
2867;DHT22;1441;48.886;8.728;2023-04-03T07:11:26;4.40;85.10
2867;DHT22;1441;48.886;8.728;2023-04-03T07:13:52;4.40;86.40
2867;DHT22;1441;48.886;8.728;2023-04-03T07:16:19;4.40;86.20
2867;DHT22;1441;48.886;8.728;2023-04-03T07:18:45;4.40;86.10
2867;DHT22;1441;48.886;8.728;2023-04-03T07:21:11;4.70;85.40
2867;DHT22;1441;48.886;8.728;2023-04-03T07:23:37;5.00;85.00
2867;DHT22;1441;48.886;8.728;2023-04-03T07:26:03;4.80;85.20
2867;DHT22;1441;48.886;8.728;2023-04-03T07:28:29;4.80;85.20
2867;DHT22;1441;48.886;8.728;2023-04-03T07:31:06;4.80;85.40
2867;DHT22;1441;48.886;8.728;2023-04-03T07:33:34;4.60;86.10
2867;DHT22;1441;48.886;8.728;2023-04-03T07:36:01;4.60;86.20
2867;DHT22;1441;48.886;8.728;2023-04-03T07:38:27;5.30;85.40
2867;DHT22;1441;48.886;8.728;2023-04-03T07:40:53;5.70;83.50
2867;DHT22;1441;48.886;8.728;2023-04-03T07:43:20;6.30;82.90
2867;DHT22;1441;48.886;8.728;2023-04-03T07:45:46;7.00;81.00
2867;DHT22;1441;48.886;8.728;2023-04-03T07:48:15;8.30;76.80
2867;DHT22;1441;48.886;8.728;2023-04-03T07:50:41;9.40;74.60
2867;DHT22;1441;48.886;8.728;2023-04-03T07:53:07;9.80;72.90
2867;DHT22;1441;48.886;8.728;2023-04-03T07:55:33;10.50;70.90
2867;DHT22;1441;48.886;8.728;2023-04-03T07:57:59;10.50;68.70
2867;DHT22;1441;48.886;8.728;2023-04-03T08:00:24;9.60;70.90
2867;DHT22;1441;48.886;8.728;2023-04-03T08:02:51;10.00;70.50
2867;DHT22;1441;48.886;8.728;2023-04-03T08:05:18;9.70;70.60
2867;DHT22;1441;48.886;8.728;2023-04-03T08:07:44;9.30;71.50
2867;DHT22;1441;48.886;8.728;2023-04-03T08:10:10;9.50;72.10
2867;DHT22;1441;48.886;8.728;2023-04-03T08:12:35;10.00;70.20
2867;DHT22;1441;48.886;8.728;2023-04-03T08:15:02;9.30;71.40
2867;DHT22;1441;48.886;8.728;2023-04-03T08:17:28;8.90;71.70
2867;DHT22;1441;48.886;8.728;2023-04-03T08:19:54;8.30;74.00
2867;DHT22;1441;48.886;8.728;2023-04-03T08:22:19;7.30;76.00
2867;DHT22;1441;48.886;8.728;2023-04-03T08:24:45;7.20;77.10
2867;DHT22;1441;48.886;8.728;2023-04-03T08:27:11;6.60;78.50
2867;DHT22;1441;48.886;8.728;2023-04-03T08:29:37;6.70;79.20
2867;DHT22;1441;48.886;8.728;2023-04-03T08:32:04;6.70;79.10
2867;DHT22;1441;48.886;8.728;2023-04-03T08:34:29;6.50;79.60
2867;DHT22;1441;48.886;8.728;2023-04-03T08:36:55;6.20;81.00
2867;DHT22;1441;48.886;8.728;2023-04-03T08:39:21;5.90;82.10
2867;DHT22;1441;48.886;8.728;2023-04-03T08:41:47;6.00;82.40
2867;DHT22;1441;48.886;8.728;2023-04-03T08:47:12;6.10;82.80
2867;DHT22;1441;48.886;8.728;2023-04-03T08:50:07;6.60;81.60
2867;DHT22;1441;48.886;8.728;2023-04-03T08:52:42;8.10;77.80
2867;DHT22;1441;48.886;8.728;2023-04-03T08:55:27;10.10;72.20
2867;DHT22;1441;48.886;8.728;2023-04-03T08:58:12;9.40;71.00
2867;DHT22;1441;48.886;8.728;2023-04-03T09:03:21;7.70;76.90
2867;DHT22;1441;48.886;8.728;2023-04-03T09:06:25;7.50;77.30
2867;DHT22;1441;48.886;8.728;2023-04-03T09:12:00;7.90;75.50
2867;DHT22;1441;48.886;8.728;2023-04-03T09:22:57;7.70;77.00
2867;DHT22;1441;48.886;8.728;2023-04-03T09:25:31;9.80;71.40
2867;DHT22;1441;48.886;8.728;2023-04-03T09:27:59;10.10;69.30
2867;DHT22;1441;48.886;8.728;2023-04-03T09:30:26;10.00;68.80
2867;DHT22;1441;48.886;8.728;2023-04-03T09:32:56;9.60;68.20
2867;DHT22;1441;48.886;8.728;2023-04-03T09:35:32;9.10;70.70
2867;DHT22;1441;48.886;8.728;2023-04-03T09:40:38;9.00;71.40
2867;DHT22;1441;48.886;8.728;2023-04-03T09:43:24;8.90;70.20
2867;DHT22;1441;48.886;8.728;2023-04-03T09:45:50;8.70;72.10
2867;DHT22;1441;48.886;8.728;2023-04-03T09:48:20;8.50;71.00
2867;DHT22;1441;48.886;8.728;2023-04-03T09:55:59;7.60;74.30
2867;DHT22;1441;48.886;8.728;2023-04-03T09:58:31;7.80;74.10
2867;DHT22;1441;48.886;8.728;2023-04-03T10:01:00;7.90;73.40
2867;DHT22;1441;48.886;8.728;2023-04-03T10:03:30;7.80;73.10
2867;DHT22;1441;48.886;8.728;2023-04-03T10:05:57;7.80;73.30
2867;DHT22;1441;48.886;8.728;2023-04-03T10:08:29;7.60;74.40
2867;DHT22;1441;48.886;8.728;2023-04-03T10:11:14;7.50;74.50
2867;DHT22;1441;48.886;8.728;2023-04-03T10:14:16;7.50;74.50
2867;DHT22;1441;48.886;8.728;2023-04-03T10:20:30;7.40;73.00
2867;DHT22;1441;48.886;8.728;2023-04-03T10:23:15;7.10;74.00
2867;DHT22;1441;48.886;8.728;2023-04-03T10:29:09;6.50;73.80
2867;DHT22;1441;48.886;8.728;2023-04-03T10:31:46;6.40;75.20
2867;DHT22;1441;48.886;8.728;2023-04-03T10:37:14;6.70;75.10
2867;DHT22;1441;48.886;8.728;2023-04-03T10:42:43;6.60;74.30
2867;DHT22;1441;48.886;8.728;2023-04-03T10:50:26;7.10;72.50
2867;DHT22;1441;48.886;8.728;2023-04-03T10:55:52;7.10;72.50
2867;DHT22;1441;48.886;8.728;2023-04-03T10:58:29;7.00;72.30
2867;DHT22;1441;48.886;8.728;2023-04-03T11:01:01;6.90;72.10
2867;DHT22;1441;48.886;8.728;2023-04-03T11:03:34;6.80;72.80
2867;DHT22;1441;48.886;8.728;2023-04-03T11:06:02;6.80;73.40
2867;DHT22;1441;48.886;8.728;2023-04-03T11:08:51;7.00;73.70
2867;DHT22;1441;48.886;8.728;2023-04-03T11:11:25;7.00;72.00
2867;DHT22;1441;48.886;8.728;2023-04-03T11:14:01;7.10;71.90
2867;DHT22;1441;48.886;8.728;2023-04-03T11:16:31;7.00;72.80
2867;DHT22;1441;48.886;8.728;2023-04-03T11:22:02;6.60;72.40
2867;DHT22;1441;48.886;8.728;2023-04-03T11:24:32;6.40;73.20
2867;DHT22;1441;48.886;8.728;2023-04-03T11:27:00;6.30;73.30
2867;DHT22;1441;48.886;8.728;2023-04-03T11:29:35;6.30;73.30
2867;DHT22;1441;48.886;8.728;2023-04-03T11:34:55;6.50;73.40
2867;DHT22;1441;48.886;8.728;2023-04-03T11:37:33;6.60;72.70
2867;DHT22;1441;48.886;8.728;2023-04-03T11:40:27;6.70;72.40
2867;DHT22;1441;48.886;8.728;2023-04-03T11:43:24;6.90;72.20
2867;DHT22;1441;48.886;8.728;2023-04-03T11:46:13;6.80;71.90
2867;DHT22;1441;48.886;8.728;2023-04-03T11:48:44;6.90;72.10
2867;DHT22;1441;48.886;8.728;2023-04-03T11:53:43;7.00;71.40
2867;DHT22;1441;48.886;8.728;2023-04-03T12:01:48;7.00;70.00
2867;DHT22;1441;48.886;8.728;2023-04-03T12:04:16;6.90;70.80
2867;DHT22;1441;48.886;8.728;2023-04-03T12:06:49;7.10;71.90
2867;DHT22;1441;48.886;8.728;2023-04-03T12:11:56;7.00;71.10
2867;DHT22;1441;48.886;8.728;2023-04-03T12:14:23;7.10;70.90
2867;DHT22;1441;48.886;8.728;2023-04-03T12:16:53;7.30;70.90
2867;DHT22;1441;48.886;8.728;2023-04-03T12:24:32;7.80;69.40
2867;DHT22;1441;48.886;8.728;2023-04-03T12:34:55;7.40;70.40
2867;DHT22;1441;48.886;8.728;2023-04-03T12:45:55;6.90;71.60
2867;DHT22;1441;48.886;8.728;2023-04-03T12:48:27;6.90;71.70
2867;DHT22;1441;48.886;8.728;2023-04-03T12:50:54;7.10;71.90
2867;DHT22;1441;48.886;8.728;2023-04-03T12:53:27;7.20;72.00
2867;DHT22;1441;48.886;8.728;2023-04-03T12:55:56;7.30;71.70
2867;DHT22;1441;48.886;8.728;2023-04-03T12:58:25;7.40;71.00
2867;DHT22;1441;48.886;8.728;2023-04-03T13:01:09;7.40;70.50
2867;DHT22;1441;48.886;8.728;2023-04-03T13:03:39;7.30;69.00
2867;DHT22;1441;48.886;8.728;2023-04-03T13:06:05;7.10;69.50
2867;DHT22;1441;48.886;8.728;2023-04-03T13:08:31;7.20;70.40
2867;DHT22;1441;48.886;8.728;2023-04-03T13:11:08;7.30;70.10
2867;DHT22;1441;48.886;8.728;2023-04-03T13:13:35;7.40;70.10
2867;DHT22;1441;48.886;8.728;2023-04-03T13:16:09;7.40;69.80
2867;DHT22;1441;48.886;8.728;2023-04-03T13:18:37;7.20;69.20
2867;DHT22;1441;48.886;8.728;2023-04-03T13:21:06;7.20;69.70
2867;DHT22;1441;48.886;8.728;2023-04-03T13:23:35;7.30;69.10
2867;DHT22;1441;48.886;8.728;2023-04-03T13:26:03;7.30;68.90
2867;DHT22;1441;48.886;8.728;2023-04-03T13:28:30;7.60;69.50
2867;DHT22;1441;48.886;8.728;2023-04-03T13:31:01;7.70;68.70
2867;DHT22;1441;48.886;8.728;2023-04-03T13:33:30;7.70;69.10
2867;DHT22;1441;48.886;8.728;2023-04-03T13:36:18;7.70;68.70
2867;DHT22;1441;48.886;8.728;2023-04-03T13:38:45;7.60;71.30
2867;DHT22;1441;48.886;8.728;2023-04-03T13:41:30;7.50;68.60
2867;DHT22;1441;48.886;8.728;2023-04-03T13:43:56;7.70;70.60
2867;DHT22;1441;48.886;8.728;2023-04-03T13:46:27;7.80;68.80
2867;DHT22;1441;48.886;8.728;2023-04-03T13:48:56;7.80;68.10
2867;DHT22;1441;48.886;8.728;2023-04-03T13:51:25;7.80;67.40
2867;DHT22;1441;48.886;8.728;2023-04-03T13:54:01;7.40;68.00
2867;DHT22;1441;48.886;8.728;2023-04-03T13:56:34;7.40;67.50
2867;DHT22;1441;48.886;8.728;2023-04-03T14:04:31;7.40;68.20
2867;DHT22;1441;48.886;8.728;2023-04-03T14:06:57;7.40;67.30
2867;DHT22;1441;48.886;8.728;2023-04-03T14:09:26;7.30;67.60
2867;DHT22;1441;48.886;8.728;2023-04-03T14:11:55;7.30;67.40
2867;DHT22;1441;48.886;8.728;2023-04-03T14:14:31;7.30;68.20
2867;DHT22;1441;48.886;8.728;2023-04-03T14:17:00;7.40;67.80
2867;DHT22;1441;48.886;8.728;2023-04-03T14:19:30;7.40;67.20
2867;DHT22;1441;48.886;8.728;2023-04-03T14:21:58;7.40;67.40
2867;DHT22;1441;48.886;8.728;2023-04-03T14:24:24;7.60;67.90
2867;DHT22;1441;48.886;8.728;2023-04-03T14:26:51;7.80;68.40
2867;DHT22;1441;48.886;8.728;2023-04-03T14:29:18;7.90;68.60
2867;DHT22;1441;48.886;8.728;2023-04-03T14:31:45;8.00;66.10
2867;DHT22;1441;48.886;8.728;2023-04-03T14:34:12;7.80;64.80
2867;DHT22;1441;48.886;8.728;2023-04-03T14:36:39;7.50;66.10
2867;DHT22;1441;48.886;8.728;2023-04-03T14:39:08;7.30;66.10
2867;DHT22;1441;48.886;8.728;2023-04-03T14:41:34;7.30;65.60
2867;DHT22;1441;48.886;8.728;2023-04-03T14:44:00;7.30;66.10
2867;DHT22;1441;48.886;8.728;2023-04-03T14:46:29;7.50;67.40
2867;DHT22;1441;48.886;8.728;2023-04-03T14:48:55;7.50;67.10
2867;DHT22;1441;48.886;8.728;2023-04-03T14:51:21;7.50;67.90
2867;DHT22;1441;48.886;8.728;2023-04-03T14:53:47;7.50;66.50
2867;DHT22;1441;48.886;8.728;2023-04-03T14:56:19;7.50;66.60
2867;DHT22;1441;48.886;8.728;2023-04-03T14:58:48;7.40;68.20
2867;DHT22;1441;48.886;8.728;2023-04-03T15:01:17;7.30;67.20
2867;DHT22;1441;48.886;8.728;2023-04-03T15:03:42;7.30;66.70
2867;DHT22;1441;48.886;8.728;2023-04-03T15:06:11;7.40;67.20
2867;DHT22;1441;48.886;8.728;2023-04-03T15:08:37;7.40;68.00
2867;DHT22;1441;48.886;8.728;2023-04-03T15:11:03;7.40;66.70
2867;DHT22;1441;48.886;8.728;2023-04-03T15:13:28;7.40;66.10
2867;DHT22;1441;48.886;8.728;2023-04-03T15:15:54;7.40;66.30
2867;DHT22;1441;48.886;8.728;2023-04-03T15:18:23;7.40;66.50
2867;DHT22;1441;48.886;8.728;2023-04-03T15:20:49;7.40;65.40
2867;DHT22;1441;48.886;8.728;2023-04-03T15:23:16;7.30;65.40
2867;DHT22;1441;48.886;8.728;2023-04-03T15:25:46;7.30;65.50
2867;DHT22;1441;48.886;8.728;2023-04-03T15:28:27;7.50;65.50
2867;DHT22;1441;48.886;8.728;2023-04-03T15:30:54;7.70;65.70
2867;DHT22;1441;48.886;8.728;2023-04-03T15:33:19;7.80;64.50
2867;DHT22;1441;48.886;8.728;2023-04-03T15:35:45;7.80;63.60
2867;DHT22;1441;48.886;8.728;2023-04-03T15:38:11;7.80;63.00
2867;DHT22;1441;48.886;8.728;2023-04-03T15:40:36;7.80;63.70
2867;DHT22;1441;48.886;8.728;2023-04-03T15:43:02;7.90;64.10
2867;DHT22;1441;48.886;8.728;2023-04-03T15:45:29;7.60;63.80
2867;DHT22;1441;48.886;8.728;2023-04-03T15:47:55;7.50;63.90
2867;DHT22;1441;48.886;8.728;2023-04-03T15:50:21;7.40;63.70
2867;DHT22;1441;48.886;8.728;2023-04-03T15:52:50;7.20;63.70
2867;DHT22;1441;48.886;8.728;2023-04-03T15:55:23;7.20;63.70
2867;DHT22;1441;48.886;8.728;2023-04-03T15:57:49;7.30;64.70
2867;DHT22;1441;48.886;8.728;2023-04-03T16:00:15;7.20;64.30
2867;DHT22;1441;48.886;8.728;2023-04-03T16:02:42;7.30;65.20
2867;DHT22;1441;48.886;8.728;2023-04-03T16:05:09;7.50;64.90
2867;DHT22;1441;48.886;8.728;2023-04-03T16:07:37;7.50;65.20
2867;DHT22;1441;48.886;8.728;2023-04-03T16:10:04;7.50;65.50
2867;DHT22;1441;48.886;8.728;2023-04-03T16:12:30;7.30;63.60
2867;DHT22;1441;48.886;8.728;2023-04-03T16:14:56;7.20;64.20
2867;DHT22;1441;48.886;8.728;2023-04-03T16:17:21;7.00;64.30
2867;DHT22;1441;48.886;8.728;2023-04-03T16:19:47;7.00;64.70
2867;DHT22;1441;48.886;8.728;2023-04-03T16:22:13;7.00;64.40
2867;DHT22;1441;48.886;8.728;2023-04-03T16:24:38;7.00;64.20
2867;DHT22;1441;48.886;8.728;2023-04-03T16:27:04;7.10;64.30
2867;DHT22;1441;48.886;8.728;2023-04-03T16:29:30;7.20;63.80
2867;DHT22;1441;48.886;8.728;2023-04-03T16:31:56;7.20;62.80
2867;DHT22;1441;48.886;8.728;2023-04-03T16:34:23;7.30;64.10
2867;DHT22;1441;48.886;8.728;2023-04-03T16:36:51;7.30;63.30
2867;DHT22;1441;48.886;8.728;2023-04-03T16:39:17;7.30;63.40
2867;DHT22;1441;48.886;8.728;2023-04-03T16:41:43;7.20;62.70
2867;DHT22;1441;48.886;8.728;2023-04-03T16:44:09;7.10;63.50
2867;DHT22;1441;48.886;8.728;2023-04-03T16:46:34;7.00;63.30
2867;DHT22;1441;48.886;8.728;2023-04-03T16:49:00;7.10;64.00
2867;DHT22;1441;48.886;8.728;2023-04-03T16:51:26;7.00;63.60
2867;DHT22;1441;48.886;8.728;2023-04-03T16:53:51;7.00;64.10
2867;DHT22;1441;48.886;8.728;2023-04-03T16:56:17;7.10;64.50
2867;DHT22;1441;48.886;8.728;2023-04-03T16:58:42;7.10;63.70
2867;DHT22;1441;48.886;8.728;2023-04-03T17:01:13;7.10;63.60
2867;DHT22;1441;48.886;8.728;2023-04-03T17:03:39;7.00;63.70
2867;DHT22;1441;48.886;8.728;2023-04-03T17:06:05;6.90;64.10
2867;DHT22;1441;48.886;8.728;2023-04-03T17:08:31;6.90;64.90
2867;DHT22;1441;48.886;8.728;2023-04-03T17:10:56;6.90;65.20
2867;DHT22;1441;48.886;8.728;2023-04-03T17:13:22;6.80;65.00
2867;DHT22;1441;48.886;8.728;2023-04-03T17:15:48;6.70;64.30
2867;DHT22;1441;48.886;8.728;2023-04-03T17:18:14;6.70;64.80
2867;DHT22;1441;48.886;8.728;2023-04-03T17:20:40;6.70;65.10
2867;DHT22;1441;48.886;8.728;2023-04-03T17:23:06;6.80;65.60
2867;DHT22;1441;48.886;8.728;2023-04-03T17:25:31;6.80;65.90
2867;DHT22;1441;48.886;8.728;2023-04-03T17:27:57;6.80;65.70
2867;DHT22;1441;48.886;8.728;2023-04-03T17:30:23;6.80;65.60
2867;DHT22;1441;48.886;8.728;2023-04-03T17:32:48;6.80;65.10
2867;DHT22;1441;48.886;8.728;2023-04-03T17:35:14;6.60;65.60
2867;DHT22;1441;48.886;8.728;2023-04-03T17:37:39;6.50;65.60
2867;DHT22;1441;48.886;8.728;2023-04-03T17:40:06;6.40;65.80
2867;DHT22;1441;48.886;8.728;2023-04-03T17:42:32;6.30;66.30
2867;DHT22;1441;48.886;8.728;2023-04-03T17:44:58;6.30;66.20
2867;DHT22;1441;48.886;8.728;2023-04-03T17:47:25;6.30;67.10
2867;DHT22;1441;48.886;8.728;2023-04-03T17:49:51;6.30;66.60
2867;DHT22;1441;48.886;8.728;2023-04-03T17:52:16;6.30;66.60
2867;DHT22;1441;48.886;8.728;2023-04-03T17:54:42;6.30;66.60
2867;DHT22;1441;48.886;8.728;2023-04-03T17:57:08;6.30;67.50
2867;DHT22;1441;48.886;8.728;2023-04-03T17:59:33;6.20;67.20
2867;DHT22;1441;48.886;8.728;2023-04-03T18:01:59;6.20;66.90